VIJP/JAI METAR and TAF weather

Enter ICAO airport designator
Station Type Date Time Source
VIJP METAR 2022/01/26 14:00 UTC NOAA

VIJP 261400Z VRB03KT 4000 HZ FEW100 15/05 Q1017 NOSIG


Station Type Date Time Source
VIJP Decoded METAR 2022/01/26 14:00 UTC NOAA

Jaipur / Sanganer, India (VIJP) 26-49N 075-48E 390M
Jan 26, 2022 - 09:00 AM EST / 2022.01.26 1400 UTC
Wind: Variable at 3 MPH (3 KT):0
Visibility: 2 mile(s):0
Sky conditions: mostly clear
Weather: haze
Temperature: 59 F (15 C)
Dew Point: 41 F (5 C)
Relative Humidity: 51%
Pressure (altimeter): 30.03 in. Hg (1017 hPa)
ob: VIJP 261400Z VRB03KT 4000 HZ FEW100 15/05 Q1017 NOSIG
cycle: 14

Station Type Date Time Source
VIJP TAF 2022/01/26 12:00 UTC NOAA

TAF VIJP 261100Z 2612/2718 34005KT 3000 HZ NSC
BECMG 2618/2620 VRB03KT 2000 HZ
BECMG 2700/2702 00000KT 1500 BR HZ
BECMG 2705/2707 VRB03KT 3000 HZ FEW030

Example: see airport list